KROX

Details ICAO KROX
Name ROSEAU MUNI RUDY BILLBERG FLD
Region United States
Timezone America/Chicago (UTC-6.0)
Plans Departing 3
Arriving 1
Stats Elevation 1,059 ft / 323 m (AMSL)
Location 48.855394° -95.696569°
Runways 2
Magnetic Variation 1.841° E
Sunrise 2017-12-12 14:08:44 UTC / 2017-12-12 08:08:44 Local
Sunset 2017-12-12 22:27:24 UTC / 2017-12-12 16:27:24 Local
Advertisement - Login to hide

Runways

ID Width Length Bearing (true) Bearing (mag) Surface Threshold Offset Overrun Length
06 250 ft / 76 m 2,506 ft / 764 m 68.65° 66.81° Grass 0 ft / 0 m 0 ft / 0 m
16 75 ft / 23 m 4,388 ft / 1,337 m 167.32° 165.48° Asphalt 0 ft / 0 m 0 ft / 0 m
24 250 ft / 76 m 2,506 ft / 764 m 248.66° 246.82° Grass 0 ft / 0 m 0 ft / 0 m
34 75 ft / 23 m 4,388 ft / 1,337 m 347.32° 345.48° Asphalt 0 ft / 0 m 0 ft / 0 m

Map

Weather


0- 5 10 15 20 25 30 35+ Temperature / ° C

Clouds and Precipitation
Forecast for 2017-12-13 00:00 UTC. Updated an hour ago

Ground ~20,000 ft ~40,000 ft Winds

METAR

KROX 122355Z AUTO 13008KT 10SM OVC007 M07/M09 A2965 RMK AO2

TAF

Not found

Frequencies

Unicom 122.80 MHz CTAF/UNICOM
Warning: Do not use this data for real-world aviation or navigation. No guarantee of current accuracy is given.